Smoky Lake, Canada
Current Conditions -  °F | °C
As of 12:57 PM on Thursday 27 Nov 2014 (Local Time) from CYED Reporting Station
Light Snow Light Snow  
Wind Chill: -14°   Ceiling: 600
Heat Index:   Visibility: 0.75mi
Dew Point:   Wind: 17mph
Humidity: 85%   Direction: 40°NE
Pressure: 30"   Gusts: NA
Location:  54.11°N, 112.47°W
Report Text: CYED 271957Z AUTO 04015KT 3/4SM -SN VV006 M15/M17 A3000
Loading
Personal Weather Stations






























Interactive Weather Map New forecast layout! Learn more

10-Day Weather Forecast

Advertisements
Track Severe Weather on mobile